Time;durP1;ratioP1;P1;durP2;ratioP2;P2;SDS_P1;SDS_P2;PMS_P1;PMS_P2;Temp;Humidity;BMP_temperature;BMP_pressure;BME280_temperature;BME280_humidity;BME280_pressure;Samples;Min_cycle;Max_cycle;Signal;HPM_P1;HPM_P2
2022/02/21 00:01:25;;;;;;;21.90;21.00;;;18.90;57.60;;;;;;5034126;28;20492;-40
2022/02/21 00:03:51;;;;;;;21.93;20.93;;;18.90;58.00;;;;;;5034513;28;20445;-40
2022/02/21 00:06:19;;;;;;;21.70;20.80;;;18.90;58.10;;;;;;5034210;28;20450;-40
2022/02/21 00:08:46;;;;;;;22.60;21.60;;;18.90;58.10;;;;;;5034186;28;20465;-40
2022/02/21 00:11:12;;;;;;;21.57;20.57;;;18.80;58.10;;;;;;5034088;28;20465;-40
2022/02/21 00:13:39;;;;;;;21.80;20.80;;;18.80;58.20;;;;;;5034013;28;20457;-39
2022/02/21 00:16:06;;;;;;;21.60;20.70;;;18.80;58.10;;;;;;5034067;28;20826;-40
2022/02/21 00:18:34;;;;;;;21.40;20.50;;;18.80;58.10;;;;;;5033810;28;20441;-41
2022/02/21 00:21:01;;;;;;;22.17;21.20;;;18.80;58.10;;;;;;5033870;28;20490;-40
2022/02/21 00:23:27;;;;;;;21.53;20.63;;;18.70;58.30;;;;;;5033926;28;20442;-40
2022/02/21 00:25:54;;;;;;;22.40;21.30;;;18.70;58.50;;;;;;5034012;28;20821;-40
2022/02/21 00:28:21;;;;;;;21.87;20.87;;;18.60;58.50;;;;;;5033388;28;20452;-40
2022/02/21 00:30:48;;;;;;;21.87;20.77;;;18.60;58.50;;;;;;5033833;28;20519;-40
2022/02/21 00:33:15;;;;;;;22.40;21.40;;;18.60;58.70;;;;;;5033820;28;20453;-40
2022/02/21 00:35:43;;;;;;;22.00;21.00;;;18.50;58.60;;;;;;5033828;28;20625;-40
2022/02/21 00:38:09;;;;;;;22.37;21.37;;;18.40;58.80;;;;;;5033631;28;20633;-40
2022/02/21 00:40:36;;;;;;;22.30;21.30;;;18.50;58.90;;;;;;5033469;28;20492;-40
2022/02/21 00:43:03;;;;;;;22.73;21.73;;;18.40;59.30;;;;;;5033672;28;20452;-40
2022/02/21 00:45:30;;;;;;;21.43;20.53;;;18.30;59.80;;;;;;5033685;28;20481;-42
2022/02/21 00:47:57;;;;;;;21.90;20.80;;;18.30;60.20;;;;;;5033447;28;20453;-40
2022/02/21 00:50:24;;;;;;;21.87;20.87;;;18.20;61.10;;;;;;5033634;28;20476;-39
2022/02/21 00:52:52;;;;;;;21.60;20.60;;;18.20;61.10;;;;;;5033464;28;20449;-40
2022/02/21 00:55:19;;;;;;;21.83;20.93;;;18.30;61.10;;;;;;5033387;28;20449;-39
2022/02/21 00:57:45;;;;;;;21.97;20.97;;;18.20;61.20;;;;;;5033154;28;20879;-39
2022/02/21 01:00:13;;;;;;;21.73;20.83;;;18.10;61.50;;;;;;5033288;28;20500;-40
2022/02/21 01:02:39;;;;;;;21.73;20.73;;;18.10;61.60;;;;;;5033191;28;20452;-40
2022/02/21 01:05:07;;;;;;;21.20;20.30;;;18.00;62.30;;;;;;5033157;28;20445;-40
2022/02/21 01:07:34;;;;;;;21.70;20.80;;;18.00;62.50;;;;;;5033201;28;20450;-40
2022/02/21 01:10:03;;;;;;;21.10;20.20;;;18.00;62.60;;;;;;5032746;28;20473;-40
2022/02/21 01:12:30;;;;;;;21.83;20.83;;;17.90;63.10;;;;;;5033109;28;20475;-41
2022/02/21 01:14:57;;;;;;;21.37;20.40;;;17.90;63.30;;;;;;5033107;28;20453;-40
2022/02/21 01:17:24;;;;;;;21.30;20.30;;;17.80;64.00;;;;;;5032864;28;20802;-40
2022/02/21 01:19:51;;;;;;;21.53;20.63;;;17.80;64.90;;;;;;5032521;28;20476;-40
2022/02/21 01:22:18;;;;;;;22.90;21.90;;;17.80;65.20;;;;;;5032753;28;20485;-40
2022/02/21 01:24:46;;;;;;;21.73;20.80;;;17.80;65.60;;;;;;5032765;28;20449;-40
2022/02/21 01:27:15;;;;;;;22.17;20.97;;;17.70;66.10;;;;;;5032790;28;20449;-40
2022/02/21 01:29:43;;;;;;;21.43;20.53;;;17.70;66.90;;;;;;5032498;28;20508;-43
2022/02/21 01:32:10;;;;;;;22.40;21.40;;;17.70;67.00;;;;;;5032619;28;20438;-42
2022/02/21 01:34:37;;;;;;;21.50;20.60;;;17.60;67.70;;;;;;5032548;28;20453;-41
2022/02/21 01:37:04;;;;;;;21.50;20.60;;;17.60;67.80;;;;;;5032705;28;20830;-41
2022/02/21 01:39:31;;;;;;;21.47;20.57;;;17.60;68.20;;;;;;5032203;28;20457;-40
2022/02/21 01:41:58;;;;;;;22.10;21.10;;;17.60;68.20;;;;;;5031774;28;20569;-41
2022/02/21 01:44:37;;;;;;;22.07;20.87;;;17.60;68.80;;;;;;5032374;28;20442;-39
2022/02/21 01:47:05;;;;;;;21.40;20.50;;;17.50;68.50;;;;;;5032376;28;20441;-41
2022/02/21 01:49:31;;;;;;;22.27;21.07;;;17.40;68.80;;;;;;5031905;28;20449;-41
2022/02/21 01:51:58;;;;;;;21.97;21.00;;;17.50;69.20;;;;;;5032305;28;20444;-41
2022/02/21 01:54:25;;;;;;;21.63;20.63;;;17.40;69.40;;;;;;5032244;28;20440;-40
2022/02/21 01:56:53;;;;;;;21.73;20.73;;;17.40;69.50;;;;;;5032206;28;20823;-40
2022/02/21 01:59:20;;;;;;;21.80;20.87;;;17.40;69.70;;;;;;5031916;28;20453;-43
2022/02/21 02:01:49;;;;;;;23.50;22.40;;;17.40;70.40;;;;;;5032023;28;20484;-40
2022/02/21 02:04:15;;;;;;;21.33;20.43;;;17.40;70.40;;;;;;5032179;28;20449;-41
2022/02/21 02:06:42;;;;;;;22.30;21.10;;;17.30;70.30;;;;;;5032056;28;20441;-40
2022/02/21 02:09:09;;;;;;;21.60;20.60;;;17.30;70.90;;;;;;5031850;28;20811;-41
2022/02/21 02:11:38;;;;;;;21.73;20.53;;;17.40;71.10;;;;;;5031866;28;20468;-40
2022/02/21 02:14:05;;;;;;;22.40;21.17;;;17.40;71.40;;;;;;5032047;28;20449;-40
2022/02/21 02:16:32;;;;;;;22.47;21.57;;;17.30;71.00;;;;;;5031942;28;20445;-41
2022/02/21 02:19:00;;;;;;;21.73;20.63;;;17.30;71.60;;;;;;5031790;28;20445;-40
2022/02/21 02:21:32;;;;;;;21.60;20.60;;;17.30;71.70;;;;;;5031628;28;20496;-39
2022/02/21 02:24:00;;;;;;;21.13;20.23;;;17.30;71.80;;;;;;5031887;28;20453;-40
2022/02/21 02:26:27;;;;;;;22.40;21.23;;;17.20;71.20;;;;;;5031749;28;20456;-39
2022/02/21 02:28:55;;;;;;;22.27;21.10;;;17.30;71.40;;;;;;5031690;28;20449;-39
2022/02/21 02:31:22;;;;;;;21.63;20.60;;;17.20;71.50;;;;;;5031592;28;21001;-39
2022/02/21 02:33:48;;;;;;;21.77;20.77;;;17.20;71.50;;;;;;5031717;28;20441;-40
2022/02/21 02:36:15;;;;;;;22.20;21.10;;;17.20;71.80;;;;;;5031625;28;20460;-39
2022/02/21 02:38:43;;;;;;;22.20;21.10;;;17.20;72.20;;;;;;5031409;28;20817;-39
2022/02/21 02:41:12;;;;;;;22.37;21.17;;;17.20;72.80;;;;;;5031564;28;21009;-40
2022/02/21 02:43:40;;;;;;;21.70;20.70;;;17.20;73.10;;;;;;5031614;28;20438;-39
2022/02/21 02:46:07;;;;;;;21.93;20.93;;;17.10;72.90;;;;;;5031577;28;20449;-40
2022/02/21 02:48:34;;;;;;;21.57;20.57;;;17.10;72.80;;;;;;5031289;28;20449;-39
2022/02/21 02:51:01;;;;;;;22.73;21.33;;;17.10;72.10;;;;;;5031369;28;20469;-39
2022/02/21 02:53:29;;;;;;;22.13;21.13;;;17.10;73.10;;;;;;5035293;28;20449;-39
2022/02/21 02:55:57;;;;;;;22.53;21.43;;;17.10;73.70;;;;;;5035605;28;20453;-39
2022/02/21 02:58:25;;;;;;;21.80;20.80;;;17.10;73.00;;;;;;5035311;28;20453;-39
2022/02/21 03:00:52;;;;;;;21.87;20.87;;;17.10;73.00;;;;;;5035375;28;20460;-39
2022/02/21 03:03:19;;;;;;;22.30;21.20;;;17.10;73.10;;;;;;5035417;28;20445;-39
2022/02/21 03:05:46;;;;;;;22.03;21.03;;;17.10;73.40;;;;;;5035545;28;20507;-39
2022/02/21 03:08:12;;;;;;;21.70;20.60;;;17.00;73.10;;;;;;5035337;28;20449;-39
2022/02/21 03:10:39;;;;;;;22.23;21.13;;;17.00;73.80;;;;;;5035084;28;20480;-39
2022/02/21 03:13:06;;;;;;;21.80;20.70;;;17.00;74.60;;;;;;5035350;28;20440;-39
2022/02/21 03:15:34;;;;;;;22.23;21.27;;;17.00;74.70;;;;;;5035355;28;20445;-39
2022/02/21 03:18:01;;;;;;;21.50;20.37;;;17.00;74.70;;;;;;5035004;28;20837;-39
2022/02/21 03:20:27;;;;;;;21.10;20.20;;;16.90;75.20;;;;;;5035030;28;20460;-39
2022/02/21 03:22:54;;;;;;;22.20;21.20;;;16.90;75.30;;;;;;5035163;28;20846;-39
2022/02/21 03:25:21;;;;;;;21.77;20.77;;;16.90;75.00;;;;;;5034978;28;20441;-39
2022/02/21 03:27:48;;;;;;;21.50;20.50;;;16.90;75.50;;;;;;5034855;28;20472;-39
2022/02/21 03:30:15;;;;;;;21.30;20.40;;;16.90;75.60;;;;;;5034838;28;20469;-40
2022/02/21 03:32:43;;;;;;;21.73;20.80;;;16.80;76.10;;;;;;5034984;28;20447;-40
2022/02/21 03:35:10;;;;;;;21.60;20.70;;;16.80;76.10;;;;;;5034948;28;20807;-39
2022/02/21 03:37:36;;;;;;;21.60;20.70;;;16.80;76.40;;;;;;5034883;28;20456;-40
2022/02/21 03:40:04;;;;;;;22.00;20.93;;;16.70;76.80;;;;;;5034491;28;20469;-40
2022/02/21 03:42:31;;;;;;;22.00;21.00;;;16.70;76.50;;;;;;5034633;28;20485;-39
2022/02/21 03:44:58;;;;;;;21.70;20.70;;;16.70;77.10;;;;;;5034801;28;20449;-40
2022/02/21 03:47:25;;;;;;;21.77;20.77;;;16.70;77.00;;;;;;5034822;28;20440;-39
2022/02/21 03:49:53;;;;;;;21.70;20.70;;;16.70;76.50;;;;;;5034276;28;20481;-39
2022/02/21 03:52:20;;;;;;;21.20;20.20;;;16.70;75.90;;;;;;5034563;28;20446;-40
2022/02/21 03:54:47;;;;;;;21.13;20.13;;;16.70;76.40;;;;;;5034461;28;20951;-40
2022/02/21 03:57:14;;;;;;;21.43;20.53;;;16.70;76.30;;;;;;5034588;28;20464;-39
2022/02/21 03:59:40;;;;;;;21.97;20.77;;;16.60;76.20;;;;;;5034152;28;20469;-39
2022/02/21 04:02:07;;;;;;;21.70;20.70;;;16.60;77.20;;;;;;5034355;28;20484;-39
2022/02/21 04:04:34;;;;;;;21.20;20.20;;;16.50;77.50;;;;;;5033642;28;20819;-39
2022/02/21 04:07:02;;;;;;;21.50;20.60;;;16.50;78.30;;;;;;5034268;28;20453;-39
2022/02/21 04:09:29;;;;;;;22.00;20.90;;;16.30;79.50;;;;;;5034003;28;20448;-39
2022/02/21 04:11:55;;;;;;;21.40;20.50;;;16.30;79.70;;;;;;5034275;28;20428;-39
2022/02/21 04:14:22;;;;;;;22.50;21.00;;;16.30;80.40;;;;;;5034215;28;20449;-39
2022/02/21 04:16:49;;;;;;;21.43;20.53;;;16.20;81.40;;;;;;5034041;28;20448;-39
2022/02/21 04:19:15;;;;;;;21.30;20.40;;;16.30;81.60;;;;;;5033967;28;20464;-39
2022/02/21 04:21:42;;;;;;;21.20;20.30;;;16.40;80.60;;;;;;5033799;28;20847;-39
2022/02/21 04:24:10;;;;;;;21.50;20.40;;;16.30;81.10;;;;;;5033961;28;20456;-39
2022/02/21 04:26:37;;;;;;;21.70;20.60;;;16.30;82.10;;;;;;5033907;28;20456;-40
2022/02/21 04:29:04;;;;;;;21.70;20.80;;;16.30;82.10;;;;;;5033700;28;20452;-39
2022/02/21 04:31:30;;;;;;;21.20;20.30;;;16.30;83.00;;;;;;5033777;28;20465;-39
2022/02/21 04:33:57;;;;;;;21.83;20.83;;;16.30;83.70;;;;;;5033905;28;20829;-39
2022/02/21 04:36:24;;;;;;;22.07;21.07;;;16.20;82.70;;;;;;5033813;28;20824;-39
2022/02/21 04:38:51;;;;;;;21.73;20.73;;;16.20;83.60;;;;;;5033494;28;20456;-39
2022/02/21 04:41:19;;;;;;;21.47;20.53;;;16.30;83.40;;;;;;5033481;28;20562;-39
2022/02/21 04:43:46;;;;;;;21.90;20.90;;;16.40;82.80;;;;;;5033538;28;20448;-39
2022/02/21 04:46:13;;;;;;;21.70;20.70;;;16.20;81.60;;;;;;5033516;28;20449;-39
2022/02/21 04:48:40;;;;;;;21.30;20.30;;;16.30;81.80;;;;;;5033299;28;20449;-39
2022/02/21 04:51:07;;;;;;;22.23;21.13;;;16.30;81.40;;;;;;5033342;28;20483;-39
2022/02/21 04:53:33;;;;;;;21.40;20.40;;;16.20;82.70;;;;;;5033415;28;20931;-39
2022/02/21 04:56:00;;;;;;;22.10;21.10;;;16.20;81.90;;;;;;5033342;28;20456;-39
2022/02/21 04:58:28;;;;;;;21.80;20.80;;;16.20;83.30;;;;;;5033066;28;20452;-39
2022/02/21 05:00:55;;;;;;;22.53;21.33;;;16.10;82.20;;;;;;5033173;28;20839;-39
2022/02/21 05:03:22;;;;;;;21.70;20.70;;;16.20;83.90;;;;;;5033225;28;20481;-39
2022/02/21 05:05:49;;;;;;;21.37;20.37;;;16.20;83.20;;;;;;5033265;28;20449;-39
2022/02/21 05:08:15;;;;;;;21.70;20.30;;;16.10;83.80;;;;;;5032981;28;20452;-39
2022/02/21 05:10:42;;;;;;;21.43;20.33;;;16.10;84.50;;;;;;5033009;28;20472;-39
2022/02/21 05:13:09;;;;;;;21.70;20.70;;;16.10;85.10;;;;;;5033006;28;20449;-39
2022/02/21 05:15:37;;;;;;;21.30;20.30;;;16.10;85.70;;;;;;5031936;28;20445;-39
2022/02/21 05:18:04;;;;;;;21.07;20.17;;;16.10;85.70;;;;;;5032985;28;20789;-39
2022/02/21 05:20:30;;;;;;;21.70;20.23;;;16.10;86.10;;;;;;5032848;28;20819;-39
2022/02/21 05:22:57;;;;;;;21.77;20.73;;;16.10;84.80;;;;;;5032714;28;20485;-40
2022/02/21 05:25:24;;;;;;;21.43;20.43;;;16.10;84.30;;;;;;5032954;28;20446;-39
2022/02/21 05:27:51;;;;;;;21.90;20.90;;;16.10;86.20;;;;;;5032532;28;20930;-39
2022/02/21 05:30:17;;;;;;;21.67;20.47;;;16.00;85.80;;;;;;5032516;28;20470;-40
2022/02/21 05:32:45;;;;;;;21.30;20.30;;;16.10;86.50;;;;;;5032656;28;20448;-39
2022/02/21 05:35:13;;;;;;;23.73;22.23;;;16.20;85.00;;;;;;5032540;28;20923;-39
2022/02/21 05:37:39;;;;;;;22.20;20.60;;;16.20;85.90;;;;;;5032554;28;20942;-39
2022/02/21 05:40:07;;;;;;;21.60;20.60;;;16.10;86.60;;;;;;5032329;28;20476;-39
2022/02/21 05:42:34;;;;;;;21.67;20.50;;;16.00;87.20;;;;;;5032262;28;20489;-39
2022/02/21 05:45:01;;;;;;;21.60;20.50;;;15.90;87.90;;;;;;5032249;28;20441;-40
2022/02/21 05:47:27;;;;;;;21.50;20.50;;;15.80;89.40;;;;;;5032257;28;20456;-39
2022/02/21 05:49:55;;;;;;;21.80;20.60;;;15.80;89.70;;;;;;5031880;28;20496;-39
2022/02/21 05:52:22;;;;;;;21.50;20.50;;;16.00;89.00;;;;;;5032313;28;20442;-39
2022/02/21 05:54:49;;;;;;;21.67;20.67;;;16.50;87.10;;;;;;5032298;28;20454;-39
2022/02/21 05:57:16;;;;;;;21.70;20.70;;;16.80;82.40;;;;;;5032315;28;20449;-39
2022/02/21 05:59:43;;;;;;;21.97;20.70;;;17.30;79.80;;;;;;5031792;28;20473;-40
2022/02/21 06:02:10;;;;;;;21.90;20.80;;;17.70;75.50;;;;;;5032218;28;20484;-40
2022/02/21 06:04:37;;;;;;;21.63;20.57;;;17.90;71.80;;;;;;5032153;28;20445;-43
2022/02/21 06:07:05;;;;;;;21.60;20.60;;;18.20;69.80;;;;;;5032198;28;20445;-39
2022/02/21 06:09:32;;;;;;;21.37;20.37;;;18.40;67.30;;;;;;5031978;28;20540;-40
2022/02/21 06:11:59;;;;;;;21.87;20.77;;;18.50;65.00;;;;;;5031985;28;20441;-39
2022/02/21 06:14:25;;;;;;;22.40;21.37;;;18.60;63.00;;;;;;5031907;28;20441;-40
2022/02/21 06:16:52;;;;;;;22.67;21.67;;;18.60;62.10;;;;;;5031969;28;20643;-40
2022/02/21 06:19:20;;;;;;;23.77;22.60;;;18.60;62.40;;;;;;5031685;28;20445;-40
2022/02/21 06:21:47;;;;;;;24.00;22.90;;;18.70;63.80;;;;;;5031850;28;20802;-40
2022/02/21 06:24:15;;;;;;;25.83;23.80;;;18.80;66.00;;;;;;5031892;28;20442;-40
2022/02/21 06:26:42;;;;;;;26.13;24.73;;;18.80;69.80;;;;;;5031422;28;20441;-39
2022/02/21 06:29:09;;;;;;;26.37;24.67;;;18.90;74.10;;;;;;5031493;28;20814;-39
2022/02/21 06:31:35;;;;;;;24.63;23.33;;;18.90;75.70;;;;;;5031691;28;20978;-40
2022/02/21 06:34:02;;;;;;;27.50;25.70;;;18.90;77.00;;;;;;5031705;28;20891;-40
2022/02/21 06:36:29;;;;;;;26.40;23.90;;;19.00;77.10;;;;;;5031609;28;20449;-46
2022/02/21 06:38:57;;;;;;;24.40;22.80;;;19.00;77.00;;;;;;5031429;28;20831;-40
2022/02/21 06:41:25;;;;;;;27.33;25.80;;;19.00;76.60;;;;;;5031383;28;20855;-40
2022/02/21 06:43:52;;;;;;;29.13;27.03;;;19.00;76.00;;;;;;5031470;28;20488;-40
2022/02/21 06:46:19;;;;;;;29.73;28.00;;;19.00;73.90;;;;;;5031651;28;20707;-39
2022/02/21 06:48:46;;;;;;;30.27;28.10;;;19.00;73.40;;;;;;5031214;28;20533;-40
2022/02/21 06:51:13;;;;;;;26.10;24.30;;;19.00;71.60;;;;;;5031997;28;20480;-40
2022/02/21 06:53:39;;;;;;;29.30;26.70;;;19.00;71.10;;;;;;5031402;28;20452;-39
2022/02/21 06:56:06;;;;;;;26.57;24.87;;;19.00;70.60;;;;;;5031339;28;20445;-42
2022/02/21 06:58:34;;;;;;;28.83;27.13;;;19.00;69.30;;;;;;5031298;28;20472;-42
2022/02/21 07:01:01;;;;;;;27.63;25.93;;;19.00;68.60;;;;;;5031436;28;20472;-40
2022/02/21 07:03:28;;;;;;;31.57;29.67;;;19.00;68.00;;;;;;5031226;28;20484;-39
2022/02/21 07:05:54;;;;;;;27.50;26.20;;;19.00;67.50;;;;;;5031550;28;20543;-45
2022/02/21 07:08:21;;;;;;;32.37;30.70;;;18.90;66.90;;;;;;5031293;28;20452;-40
2022/02/21 07:10:48;;;;;;;31.80;29.90;;;18.90;66.30;;;;;;5031106;28;20473;-40
2022/02/21 07:13:15;;;;;;;31.60;29.70;;;19.00;65.10;;;;;;5031338;28;20449;-40
2022/02/21 07:15:43;;;;;;;31.47;29.20;;;19.00;64.90;;;;;;5031201;28;20978;-39
2022/02/21 07:18:11;;;;;;;31.13;29.70;;;19.00;64.10;;;;;;5031062;28;20449;-39
2022/02/21 07:20:38;;;;;;;32.37;30.57;;;19.00;63.20;;;;;;5031187;28;20472;-40
2022/02/21 07:23:04;;;;;;;30.17;28.67;;;18.90;62.80;;;;;;5031170;28;20846;-42
2022/02/21 07:25:31;;;;;;;28.20;26.57;;;18.90;62.10;;;;;;5031182;28;20820;-40
2022/02/21 07:27:58;;;;;;;28.40;26.90;;;18.90;61.60;;;;;;5031172;28;20449;-39
2022/02/21 07:30:26;;;;;;;30.03;28.50;;;18.90;61.10;;;;;;5030944;28;20481;-39
2022/02/21 07:32:55;;;;;;;28.67;27.17;;;18.90;60.20;;;;;;5031166;28;20500;-39
2022/02/21 07:35:22;;;;;;;30.03;28.33;;;18.90;59.60;;;;;;5031179;28;20480;-40
2022/02/21 07:37:49;;;;;;;30.20;28.50;;;18.90;59.40;;;;;;5030860;28;20463;-40
2022/02/21 07:40:17;;;;;;;29.53;27.60;;;18.90;59.00;;;;;;5034210;28;20830;-40
2022/02/21 07:42:49;;;;;;;28.43;26.53;;;18.90;59.00;;;;;;5034711;28;20485;-40
2022/02/21 07:45:17;;;;;;;27.07;25.57;;;18.80;58.40;;;;;;5034733;28;20472;-40
2022/02/21 07:47:44;;;;;;;28.03;26.53;;;18.80;58.10;;;;;;5034570;28;20551;-40
2022/02/21 07:50:13;;;;;;;26.40;25.00;;;18.80;58.10;;;;;;5034371;28;20517;-40
2022/02/21 07:52:40;;;;;;;24.77;23.47;;;18.70;58.00;;;;;;5034568;28;20441;-39
2022/02/21 07:55:08;;;;;;;24.93;23.63;;;18.70;57.60;;;;;;5034626;28;20449;-40
2022/02/21 07:57:35;;;;;;;25.73;24.33;;;18.60;57.50;;;;;;5034482;28;20446;-41
2022/02/21 08:00:01;;;;;;;23.93;22.77;;;18.50;57.40;;;;;;5034221;28;20465;-40
2022/02/21 08:02:28;;;;;;;25.80;24.27;;;18.30;57.40;;;;;;5034232;28;20441;-40
2022/02/21 08:04:55;;;;;;;25.60;24.30;;;18.20;57.50;;;;;;5034431;28;20775;-45
2022/02/21 08:07:23;;;;;;;27.77;26.27;;;18.10;57.60;;;;;;5034317;28;20468;-44
2022/02/21 08:09:50;;;;;;;27.40;26.10;;;18.10;58.10;;;;;;5034138;28;20472;-42
2022/02/21 08:12:17;;;;;;;28.03;26.53;;;18.00;57.80;;;;;;5034080;28;20969;-40
2022/02/21 08:14:43;;;;;;;27.70;26.13;;;18.00;57.80;;;;;;5034074;28;20452;-40
2022/02/21 08:17:10;;;;;;;29.00;27.60;;;18.00;58.30;;;;;;5034215;28;20453;-40
2022/02/21 08:19:37;;;;;;;27.20;25.80;;;17.90;57.70;;;;;;5033859;28;20817;-41
2022/02/21 08:22:04;;;;;;;26.17;24.70;;;17.90;57.60;;;;;;5034012;28;20449;-41
2022/02/21 08:24:32;;;;;;;27.20;25.73;;;17.90;57.80;;;;;;5034040;28;20489;-40
2022/02/21 08:26:59;;;;;;;29.10;27.60;;;17.80;57.70;;;;;;5034023;28;20441;-41
2022/02/21 08:29:26;;;;;;;26.30;25.10;;;17.80;57.70;;;;;;5033645;28;20560;-41
2022/02/21 08:31:54;;;;;;;25.40;24.10;;;17.80;58.00;;;;;;5034006;28;20450;-41
2022/02/21 08:34:21;;;;;;;26.00;24.70;;;17.70;57.80;;;;;;5033936;28;20488;-41
2022/02/21 08:36:47;;;;;;;27.73;26.13;;;17.70;57.60;;;;;;5033790;28;20804;-41
2022/02/21 08:39:14;;;;;;;26.77;25.37;;;17.80;57.70;;;;;;5033547;28;20449;-40
2022/02/21 08:41:42;;;;;;;26.70;25.30;;;18.00;56.90;;;;;;5033454;28;20465;-41
2022/02/21 08:44:09;;;;;;;25.20;24.10;;;18.10;56.30;;;;;;5033525;28;20485;-41
2022/02/21 08:46:36;;;;;;;28.73;27.13;;;18.30;55.60;;;;;;5033738;28;21057;-42
2022/02/21 08:49:03;;;;;;;26.57;25.27;;;18.30;55.40;;;;;;5033115;28;20928;-40
2022/02/21 08:51:30;;;;;;;27.40;26.10;;;18.40;55.50;;;;;;5033234;28;20481;-41
2022/02/21 08:53:57;;;;;;;28.17;26.77;;;18.40;54.50;;;;;;5033331;28;20541;-41
2022/02/21 08:56:24;;;;;;;27.60;26.20;;;18.50;54.30;;;;;;5033282;28;20450;-41
2022/02/21 08:58:53;;;;;;;26.07;24.87;;;18.50;53.90;;;;;;5033199;28;20532;-41
2022/02/21 09:01:20;;;;;;;27.40;26.03;;;18.50;53.60;;;;;;5033232;28;20469;-40
2022/02/21 09:03:47;;;;;;;27.63;26.23;;;18.50;53.70;;;;;;5033303;28;20480;-40
2022/02/21 09:06:15;;;;;;;25.97;24.60;;;18.50;52.90;;;;;;5033171;28;20481;-41
2022/02/21 09:08:42;;;;;;;27.60;26.10;;;18.50;52.90;;;;;;5032971;28;20977;-42
2022/02/21 09:11:09;;;;;;;25.60;24.30;;;18.50;52.90;;;;;;5032987;28;20465;-42
2022/02/21 09:13:36;;;;;;;26.40;24.97;;;18.50;52.80;;;;;;5033100;28;20441;-42
2022/02/21 09:16:04;;;;;;;25.87;24.63;;;18.50;52.50;;;;;;5033056;28;20438;-42
2022/02/21 09:18:31;;;;;;;27.37;25.87;;;18.60;52.20;;;;;;5032723;28;20449;-42
2022/02/21 09:20:59;;;;;;;28.10;26.80;;;18.60;52.20;;;;;;5032743;28;20465;-42
2022/02/21 09:23:25;;;;;;;24.87;23.77;;;18.60;52.20;;;;;;5032829;28;20535;-43
2022/02/21 09:25:52;;;;;;;26.00;24.80;;;18.60;52.10;;;;;;5032660;28;20819;-42
2022/02/21 09:28:19;;;;;;;26.40;25.20;;;18.60;51.80;;;;;;5032599;28;20452;-42
2022/02/21 09:30:46;;;;;;;24.83;23.73;;;18.70;51.50;;;;;;5032662;28;20476;-42
2022/02/21 09:33:14;;;;;;;25.73;24.43;;;18.80;51.40;;;;;;5032724;28;20455;-42
2022/02/21 09:35:40;;;;;;;26.07;24.67;;;18.90;51.00;;;;;;5032907;28;20445;-49
2022/02/21 09:38:07;;;;;;;26.60;25.30;;;19.00;50.80;;;;;;5032392;28;20454;-42
2022/02/21 09:40:34;;;;;;;25.27;24.00;;;18.90;50.10;;;;;;5032386;28;20500;-41
2022/02/21 09:43:01;;;;;;;27.07;25.87;;;18.80;50.10;;;;;;5032414;28;20809;-42
2022/02/21 09:45:29;;;;;;;25.90;24.70;;;18.80;50.30;;;;;;5032383;28;20441;-42
2022/02/21 09:47:57;;;;;;;27.43;26.13;;;18.80;50.00;;;;;;5032256;28;20794;-42
2022/02/21 09:50:26;;;;;;;26.80;25.60;;;18.80;49.90;;;;;;5032254;28;20484;-42
2022/02/21 09:52:54;;;;;;;27.13;25.80;;;18.80;49.70;;;;;;5032400;28;20446;-42
2022/02/21 09:55:21;;;;;;;26.53;25.33;;;18.70;49.70;;;;;;5032193;28;20445;-41
2022/02/21 09:57:48;;;;;;;27.00;25.70;;;18.50;49.80;;;;;;5032213;28;20452;-41
2022/02/21 10:00:16;;;;;;;26.20;24.90;;;18.40;50.20;;;;;;5032116;28;20473;-42
2022/02/21 10:02:47;;;;;;;24.90;23.60;;;18.30;49.90;;;;;;5031659;28;20845;-41
2022/02/21 10:05:16;;;;;;;26.00;24.80;;;18.20;50.30;;;;;;5032124;28;20610;-43
2022/02/21 10:07:45;;;;;;;26.93;25.73;;;18.20;50.00;;;;;;5031962;28;20544;-42
2022/02/21 10:10:14;;;;;;;25.10;24.00;;;18.20;50.20;;;;;;5031992;28;20480;-44
2022/02/21 10:12:48;;;;;;;25.80;24.40;;;18.10;50.30;;;;;;5032105;28;20907;-42
2022/02/21 10:15:18;;;;;;;26.17;24.83;;;18.10;50.40;;;;;;5031924;28;20437;-41
2022/02/21 10:17:45;;;;;;;28.03;26.70;;;18.10;50.50;;;;;;5031705;28;20943;-40
2022/02/21 10:20:13;;;;;;;27.70;26.27;;;18.20;50.60;;;;;;5031694;28;20974;-42
2022/02/21 10:22:40;;;;;;;28.63;27.33;;;18.30;50.40;;;;;;5031811;28;20453;-44
2022/02/21 10:25:21;;;;;;;28.60;27.20;;;18.40;50.10;;;;;;5031704;28;20484;-41
2022/02/21 10:27:48;;;;;;;27.37;26.07;;;18.50;49.80;;;;;;5031704;28;20446;-42
2022/02/21 10:30:17;;;;;;;26.90;25.70;;;18.60;49.60;;;;;;5031588;28;20468;-42
2022/02/21 10:32:47;;;;;;;28.60;27.20;;;18.50;49.50;;;;;;5031772;28;20867;-43
2022/02/21 10:35:16;;;;;;;28.10;26.80;;;18.50;49.40;;;;;;5031757;28;20923;-43
2022/02/21 10:37:45;;;;;;;26.43;25.23;;;18.40;49.40;;;;;;5031481;28;20460;-41
2022/02/21 10:40:14;;;;;;;28.00;26.70;;;18.40;49.50;;;;;;5031476;28;20476;-42
2022/02/21 10:42:44;;;;;;;26.30;25.10;;;18.40;49.50;;;;;;5031534;28;20450;-42
2022/02/21 10:45:13;;;;;;;26.80;25.60;;;18.40;49.70;;;;;;5031521;28;20520;-42
2022/02/21 10:47:42;;;;;;;27.30;26.10;;;18.40;49.80;;;;;;5031469;28;20456;-42
2022/02/21 10:50:11;;;;;;;24.10;23.10;;;18.40;49.70;;;;;;5031220;28;20473;-41
2022/02/21 10:52:39;;;;;;;27.20;26.00;;;18.30;49.70;;;;;;5031613;28;20503;-41
2022/02/21 10:55:09;;;;;;;25.93;24.73;;;18.30;49.70;;;;;;5031461;28;20441;-42
2022/02/21 10:57:42;;;;;;;25.40;24.20;;;18.30;49.70;;;;;;5031478;28;20524;-41
2022/02/21 11:00:11;;;;;;;29.60;28.20;;;18.30;49.70;;;;;;5031274;28;20465;-42
2022/02/21 11:02:41;;;;;;;27.37;26.17;;;18.40;49.80;;;;;;5031511;28;20469;-40
2022/02/21 11:05:09;;;;;;;26.90;25.70;;;18.40;49.80;;;;;;5031364;28;20481;-42
2022/02/21 11:07:38;;;;;;;27.63;26.33;;;18.40;49.80;;;;;;5031329;28;20484;-41
2022/02/21 11:10:06;;;;;;;27.50;26.10;;;18.40;49.60;;;;;;5031168;28;20477;-42
2022/02/21 11:12:37;;;;;;;28.30;26.90;;;18.50;49.50;;;;;;5031956;28;20445;-44
2022/02/21 11:15:07;;;;;;;27.50;26.10;;;18.40;49.40;;;;;;5035306;28;20818;-43
2022/02/21 11:17:36;;;;;;;26.57;25.37;;;18.30;49.40;;;;;;5035290;28;20818;-38
2022/02/21 11:20:03;;;;;;;26.97;25.77;;;18.00;49.70;;;;;;5034804;28;20465;-39
2022/02/21 11:22:30;;;;;;;26.40;25.20;;;17.90;50.10;;;;;;5035122;28;20524;-39
2022/02/21 11:25:03;;;;;;;25.40;24.00;;;17.80;50.50;;;;;;5034978;28;20480;-39
2022/02/21 11:27:39;;;;;;;27.47;26.10;;;17.80;50.80;;;;;;5035093;28;20450;-38
2022/02/21 11:30:11;;;;;;;28.17;26.87;;;17.90;50.80;;;;;;5034910;28;20472;-38
2022/02/21 11:32:40;;;;;;;26.60;25.40;;;18.00;50.70;;;;;;5035131;28;20448;-39
2022/02/21 11:35:13;;;;;;;27.63;26.23;;;18.10;50.50;;;;;;5034975;28;20511;-39
2022/02/21 11:37:41;;;;;;;26.20;24.83;;;18.20;50.40;;;;;;5034857;28;20452;-40
2022/02/21 11:40:08;;;;;;;29.30;27.80;;;18.30;50.20;;;;;;5034638;28;20468;-38
2022/02/21 11:42:36;;;;;;;26.60;25.40;;;18.30;50.00;;;;;;5034960;28;20453;-39
2022/02/21 11:45:05;;;;;;;23.70;22.63;;;18.30;49.90;;;;;;5034661;28;20854;-40
2022/02/21 11:47:39;;;;;;;24.07;22.97;;;18.30;49.90;;;;;;5034728;28;20458;-38
2022/02/21 11:50:08;;;;;;;24.40;23.20;;;18.40;49.80;;;;;;5034528;28;20473;-39
2022/02/21 11:52:36;;;;;;;29.20;27.80;;;18.40;49.80;;;;;;5034547;28;20457;-39
2022/02/21 11:55:24;;;;;;;30.57;29.17;;;18.30;49.70;;;;;;5034501;28;20445;-40
2022/02/21 11:57:51;;;;;;;28.50;27.27;;;18.30;50.20;;;;;;5034226;28;20500;-40
2022/02/21 12:00:38;;;;;;;31.23;29.83;;;18.30;49.70;;;;;;5034407;28;20476;-39
2022/02/21 12:03:10;;;;;;;26.20;25.00;;;18.30;49.60;;;;;;5034435;28;20829;-39
2022/02/21 12:05:37;;;;;;;25.83;24.73;;;18.30;49.60;;;;;;5034219;28;21001;-41
2022/02/21 12:08:21;;;;;;;28.63;27.33;;;18.30;49.60;;;;;;5034125;28;20449;-39
2022/02/21 12:11:19;;;;;;;25.13;23.93;;;18.30;49.60;;;;;;5034221;28;20492;-41
2022/02/21 12:14:15;;;;;;;26.00;24.80;;;18.30;49.60;;;;;;5034417;28;20452;-41
2022/02/21 12:17:02;;;;;;;25.43;24.23;;;18.40;49.60;;;;;;5034266;28;20445;-41
2022/02/21 12:19:31;;;;;;;28.57;27.17;;;18.40;49.50;;;;;;5033958;28;20480;-39
2022/02/21 12:22:17;;;;;;;28.83;27.53;;;18.40;49.30;;;;;;5034110;28;20463;-39
2022/02/21 12:25:10;;;;;;;26.70;25.60;;;18.40;49.30;;;;;;5032904;28;21030;-39
2022/02/21 12:27:39;;;;;;;27.40;26.00;;;18.30;49.30;;;;;;5033983;28;20966;-40
2022/02/21 12:30:06;;;;;;;27.43;26.20;;;18.30;49.30;;;;;;5033767;28;20469;-39
2022/02/21 12:32:36;;;;;;;28.17;26.97;;;18.30;49.50;;;;;;5033930;28;20437;-39